Flight Track Log - Related Links

Times and Time Zones

All times are in EDT time to prevent confusion due to time zone crossing. See the QXE2130 flight status page for this flight to view local times or setup timezone preferences in your user account.

Time Position Orientation Groundspeed Altitude Reporting Facility
EDT Latitude Longitude Course Direction KTS MPH feet Rate Location/Type
Thu 12:14:00 AM 46.0230 -122.6557 350° North  Level FlightAware Approximate
Thu 12:15:00 AM 46.0961 -122.6692 352° North  Level FlightAware Approximate
Thu 12:16:00 AM 46.1694 -122.6837 354° North  Level FlightAware Approximate
Thu 12:17:00 AM 46.2430 -122.6942 354° North  Level FlightAware Approximate
Thu 12:18:00 AM 46.3149 -122.7158 341° North  Level FlightAware Approximate
Thu 12:19:00 AM 46.3887 -122.7199 358° North  Level FlightAware Approximate
Thu 12:20:00 AM 46.4626 -122.7233 358° North  Level FlightAware Approximate
Thu 12:21:00 AM 46.5365 -122.7266 358° North  Level FlightAware Approximate
Thu 12:22:00 AM 46.6105 -122.7300 358° North  Level FlightAware Approximate
Thu 12:23:00 AM 46.6844 -122.7333 North  Level FlightAware Approximate
Thu 12:24:00 AM 46.7583 -122.7333 360° North  Level FlightAware Approximate
Thu 12:25:00 AM 46.8195 -122.6852 42° Northeast  Level FlightAware Approximate
Thu 12:26:00 AM 46.8776 -122.6188 42° Northeast  Level FlightAware Approximate
Thu 12:27:00 AM 46.9342 -122.5496 19° North  Level FlightAware Approximate
Thu 12:28:00 AM 47.0043 -122.5156 10° North  Level FlightAware Approximate
Thu 12:29:00 AM 47.0768 -122.4949 19° North  Level FlightAware Approximate
Thu 12:30:00 AM 47.1490 -122.4735 North  Level FlightAware Approximate
Thu 12:31:00 AM 47.2226 -122.4659 North  Level FlightAware Approximate
Thu 12:32:00 AM 47.2963 -122.4567 North  Level FlightAware Approximate
Thu 12:33:00 AM 47.3700 -122.4500 North  Level FlightAware Approximate
Thu 12:34:00 AM 47.4440 -122.4500 North  Level FlightAware Approximate
Thu 12:35:00 AM 47.4938 -122.4251 110° East  Level FlightAware Approximate
Thu 12:36:00 AM 47.4542 -122.3348 132° Southeast  Level FlightAware Approximate
Thu 12:37:00 AM 47.4499 -122.3118 132° Southeast  Level Estimated
Thu 12:38:00 AM 47.4499 -122.3118 132° Southeast  Level Estimated
Thu 12:39:00 AM 47.4499 -122.3118 132° Southeast  Level Estimated
Thu 12:40:00 AM 47.4499 -122.3118 132° Southeast  Level Estimated
Thu 12:41:00 AM 47.4499 -122.3118 176° South  Level Estimated
Thu 12:42:00 AM 47.4499 -122.3118 176° South  Level Estimated
Thu 12:43:00 AM 47.4499 -122.3118 176° South  Level Estimated
Thu 12:44:00 AM 47.4499 -122.3118 176° South  Level Estimated
Thu 12:45:00 AM 47.4499 -122.3118 176° South  Level Estimated
Thu 12:46:00 AM 47.4499 -122.3118 176° South  Level Estimated
Thu 12:47:00 AM 47.4499 -122.3118 176° South  Level Estimated

Login

Don't have an account? Register now (free) for customized features, flight alerts, and more!